createdAt,value
2022-08-07T00:02:36.831Z,102734.33
2022-08-07T00:04:15.511Z,102731.65
2022-08-07T00:06:51.840Z,102726.53
2022-08-07T00:09:16.807Z,102726.64
2022-08-07T00:11:54.019Z,102727.17
2022-08-07T00:14:13.973Z,102724.29999999999
2022-08-07T00:16:43.688Z,102728.09999999999
2022-08-07T00:19:21.306Z,102721.53000000001
2022-08-07T00:21:57.307Z,102717.22
2022-08-07T00:24:13.889Z,102721.26000000001
2022-08-07T00:26:58.848Z,102719.35
2022-08-07T00:29:14.350Z,102716.49
2022-08-07T00:31:43.978Z,102712.9
2022-08-07T00:34:13.822Z,102711.32
2022-08-07T00:36:43.954Z,102713.18000000001
2022-08-07T00:39:16.754Z,102715.70999999999
2022-08-07T00:41:53.464Z,102713.23
2022-08-07T00:44:15.126Z,102710.03
2022-08-07T00:46:44.094Z,102707.78
2022-08-07T00:49:24.919Z,102705.86
2022-08-07T00:51:56.691Z,102709.14
2022-08-07T00:54:14.365Z,102707.70999999999
2022-08-07T00:56:43.734Z,102707.81
2022-08-07T00:59:14.691Z,102705.68000000001
2022-08-07T01:01:44.850Z,102703.72
2022-08-07T01:04:24.735Z,102706.19999999998
2022-08-07T01:06:44.166Z,102698.67
2022-08-07T01:10:05.260Z,102700.92
2022-08-07T01:12:23.671Z,102698.84
2022-08-07T01:14:15.368Z,102699.55
2022-08-07T01:16:47.324Z,102703.10999999999
2022-08-07T01:19:18.785Z,102704.17
2022-08-07T01:21:45.243Z,102705.09
2022-08-07T01:24:18.750Z,102704.2
2022-08-07T01:26:44.118Z,102699.94999999998
2022-08-07T01:29:13.992Z,102700.84999999999
2022-08-07T01:31:48.121Z,102700.01999999999
2022-08-07T01:34:14.035Z,102694.86
2022-08-07T01:36:45.073Z,102693.80000000002
2022-08-07T01:39:14.364Z,102694.41999999998
2022-08-07T01:42:06.158Z,102693.95999999999
2022-08-07T01:44:14.481Z,102690.94
2022-08-07T01:46:44.086Z,102688.77
2022-08-07T01:49:13.801Z,102689.55
2022-08-07T01:52:03.522Z,102691.22
2022-08-07T01:56:49.491Z,102686.93000000001
2022-08-07T01:59:21.639Z,102681.70999999999
2022-08-07T02:02:00.150Z,102680.04000000001
2022-08-07T02:06:44.920Z,102684.02
2022-08-07T02:09:33.446Z,102683.94
2022-08-07T02:12:03.729Z,102677.12
2022-08-07T02:14:40.908Z,102677.72
2022-08-07T02:21:56.542Z,102678.73999999999
2022-08-07T02:24:17.779Z,102676.37999999999
2022-08-07T02:26:45.356Z,102674.71
2022-08-07T02:29:14.940Z,102673.48999999999
2022-08-07T02:31:45.332Z,102674.54000000001
2022-08-07T02:39:17.293Z,102671.56
2022-08-07T02:41:50.499Z,102672.97000000002
2022-08-07T02:44:15.676Z,102674.73999999999
2022-08-07T02:46:52.794Z,102673.29
2022-08-07T02:51:49.795Z,102665.45000000001
2022-08-07T02:54:15.769Z,102663.31999999999
2022-08-07T02:56:47.062Z,102659.11000000002
2022-08-07T03:01:47.322Z,102663.18000000001
2022-08-07T03:04:15.352Z,102662.82
2022-08-07T03:06:48.130Z,102656.09
2022-08-07T03:11:52.185Z,102657.02000000002
2022-08-07T03:14:14.756Z,102657.18999999999
2022-08-07T03:16:44.392Z,102657.73
2022-08-07T03:19:14.433Z,102656.81999999999
2022-08-07T03:21:50.326Z,102653.37
2022-08-07T03:24:20.754Z,102653.99
2022-08-07T03:26:58.534Z,102651.07
2022-08-07T03:29:14.841Z,102649.45999999999
2022-08-07T03:31:46.689Z,102651.66999999998
2022-08-07T03:34:18.817Z,102649.07
2022-08-07T03:39:17.083Z,102651.01
2022-08-07T03:41:50.702Z,102651.56
2022-08-07T03:44:15.363Z,102653.01999999999
2022-08-07T03:47:13.624Z,102649.73999999999
2022-08-07T03:49:13.910Z,102649.84
2022-08-07T03:51:47.600Z,102652.17
2022-08-07T03:54:35.676Z,102650.70000000001
2022-08-07T03:57:01.445Z,102652.69
2022-08-07T03:59:14.388Z,102652.37999999999
2022-08-07T04:01:45.926Z,102654.7
2022-08-07T04:04:17.192Z,102656.26
2022-08-07T04:06:44.467Z,102655.98
2022-08-07T04:09:15.984Z,102646.98000000001
2022-08-07T04:12:28.508Z,102649.88
2022-08-07T04:14:38.171Z,102649.26000000001
2022-08-07T04:16:58.129Z,102645.56
2022-08-07T04:19:15.098Z,102647.39
2022-08-07T04:21:48.197Z,102650.77000000002
2022-08-07T04:24:30.631Z,102649.73999999999
2022-08-07T04:26:43.882Z,102649.43000000001
2022-08-07T04:29:13.956Z,102649.15000000001
2022-08-07T04:32:02.994Z,102653.92
2022-08-07T04:39:14.153Z,102651.77
2022-08-07T04:41:43.852Z,102656.09
2022-08-07T04:44:18.928Z,102654.33
2022-08-07T04:47:03.931Z,102656.88
2022-08-07T04:49:24.534Z,102648.38
2022-08-07T04:51:52.628Z,102649.76
2022-08-07T04:54:22.824Z,102653.36
2022-08-07T04:58:10.444Z,102651.32
2022-08-07T05:00:09.791Z,102649.61
2022-08-07T05:04:17.566Z,102649.39
2022-08-07T05:06:53.134Z,102651.03
2022-08-07T05:09:43.108Z,102651.92
2022-08-07T05:11:57.465Z,102650.45999999999
2022-08-07T05:14:55.987Z,102648.43000000001
2022-08-07T05:16:46.629Z,102652.14000000001
2022-08-07T05:19:18.512Z,102651.09999999999
2022-08-07T05:24:16.368Z,102646.64
2022-08-07T05:26:47.338Z,102650.37999999999
2022-08-07T05:29:16.699Z,102653.53
2022-08-07T05:31:51.102Z,102657.19999999998
2022-08-07T05:34:16.133Z,102656.25
2022-08-07T05:36:49.112Z,102659.52
2022-08-07T05:40:05.774Z,102661.12000000001
2022-08-07T05:42:02.449Z,102667.15
2022-08-07T05:44:17.014Z,102673.6
2022-08-07T05:46:46.763Z,102677.42000000001
2022-08-07T05:49:14.691Z,102674.16
2022-08-07T05:51:46.221Z,102677.22000000002
2022-08-07T05:54:30.552Z,102683.09
2022-08-07T05:56:46.828Z,102682.87
2022-08-07T05:59:17.219Z,102684.38
2022-08-07T06:01:45.372Z,102688.68
2022-08-07T06:04:17.481Z,102690.09000000001
2022-08-07T06:06:46.233Z,102687.57
2022-08-07T06:09:15.055Z,102688.71999999999
2022-08-07T06:11:44.768Z,102690.59
2022-08-07T06:14:20.860Z,102690.48
2022-08-07T06:16:50.216Z,102693.36
2022-08-07T06:19:17.901Z,102691.11
2022-08-07T06:22:16.076Z,102692.85
2022-08-07T06:24:52.476Z,102694.29000000001
2022-08-07T06:26:44.237Z,102693.36
2022-08-07T06:29:13.908Z,102694.69999999998
2022-08-07T06:31:49.817Z,102688.56000000001
2022-08-07T06:34:13.955Z,102683.62
2022-08-07T06:36:43.855Z,102681.98
2022-08-07T06:40:17.984Z,102684.35999999999
2022-08-07T06:42:00.815Z,102684.25
2022-08-07T06:44:15.085Z,102683.17
2022-08-07T06:46:44.036Z,102686.17
2022-08-07T06:49:14.389Z,102685.75
2022-08-07T06:51:49.990Z,102678.08
2022-08-07T06:55:28.452Z,102675.09999999999
2022-08-07T06:56:49.721Z,102677.36
2022-08-07T07:00:12.759Z,102670.75
2022-08-07T07:01:50.999Z,102666.67
2022-08-07T07:04:27.965Z,102661.46
2022-08-07T07:07:00.131Z,102671.03
2022-08-07T07:09:16.803Z,102675.04
2022-08-07T07:12:08.239Z,102669.8
2022-08-07T07:14:15.444Z,102670.07
2022-08-07T07:16:50.678Z,102666.52999999998
2022-08-07T07:19:55.122Z,102667.82
2022-08-07T07:22:11.861Z,102668.31999999999
2022-08-07T07:24:15.794Z,102673.61000000002
2022-08-07T07:26:49.590Z,102670.23999999999
2022-08-07T07:29:56.858Z,102672.23
2022-08-07T07:31:50.519Z,102678.7
2022-08-07T07:34:18.893Z,102677.86000000002
2022-08-07T07:36:47.815Z,102675.21999999999
2022-08-07T07:39:16.602Z,102673.01
2022-08-07T07:42:02.097Z,102678.31000000001
2022-08-07T07:44:21.430Z,102676.01
2022-08-07T07:46:55.787Z,102672.23
2022-08-07T07:50:34.217Z,102669.54000000001
2022-08-07T07:51:58.010Z,102668.54000000001
2022-08-07T07:54:16.907Z,102669.68999999999
2022-08-07T07:56:45.415Z,102674.73
2022-08-07T07:59:14.621Z,102674.0
2022-08-07T08:02:04.825Z,102668.80000000002
2022-08-07T08:04:15.821Z,102670.58
2022-08-07T08:06:52.265Z,102667.11
2022-08-07T08:09:16.685Z,102663.4
2022-08-07T08:11:59.951Z,102666.76
2022-08-07T08:14:15.354Z,102661.67
2022-08-07T08:16:50.382Z,102666.83
2022-08-07T08:20:15.705Z,102667.81000000001
2022-08-07T08:22:03.323Z,102664.45000000001
2022-08-07T08:24:36.131Z,102668.87999999999
2022-08-07T08:26:54.229Z,102664.72000000002
2022-08-07T08:29:17.035Z,102665.78
2022-08-07T08:32:16.910Z,102663.88999999998
2022-08-07T08:34:27.288Z,102667.31999999999
2022-08-07T08:36:48.377Z,102668.06999999999
2022-08-07T08:39:15.393Z,102668.38
2022-08-07T08:41:58.510Z,102663.67
2022-08-07T08:44:18.446Z,102658.23000000001
2022-08-07T08:46:52.338Z,102655.58000000002
2022-08-07T08:49:33.343Z,102655.08
2022-08-07T08:52:14.401Z,102652.31000000001
2022-08-07T08:54:22.663Z,102651.42000000001
2022-08-07T08:56:49.637Z,102647.55
2022-08-07T08:59:24.410Z,102646.47
2022-08-07T09:01:51.419Z,102646.61000000002
2022-08-07T09:04:25.950Z,102647.81
2022-08-07T09:06:54.887Z,102641.95999999999
2022-08-07T09:09:36.532Z,102641.15999999999
2022-08-07T09:11:56.720Z,102643.18000000001
2022-08-07T09:14:21.267Z,102642.11
2022-08-07T09:16:56.605Z,102649.54000000001
2022-08-07T09:19:51.676Z,102645.76
2022-08-07T09:22:22.686Z,102648.29
2022-08-07T09:24:52.443Z,102649.34000000001
2022-08-07T09:26:52.317Z,102644.23999999999
2022-08-07T09:30:05.170Z,102642.63
2022-08-07T09:31:54.347Z,102641.83
2022-08-07T09:34:20.875Z,102643.2
2022-08-07T09:36:58.359Z,102641.47
2022-08-07T09:39:53.739Z,102642.58
2022-08-07T09:42:03.184Z,102637.89
2022-08-07T09:44:32.659Z,102641.83
2022-08-07T09:47:55.666Z,102645.5
2022-08-07T09:50:01.779Z,102640.81000000001
2022-08-07T09:52:10.190Z,102641.11
2022-08-07T09:54:21.929Z,102640.67
2022-08-07T09:57:03.927Z,102634.79999999999
2022-08-07T09:59:37.116Z,102632.54
2022-08-07T10:02:00.617Z,102628.59000000001
2022-08-07T10:04:32.463Z,102630.86
2022-08-07T10:06:57.791Z,102630.86
2022-08-07T10:09:42.647Z,102627.98
2022-08-07T10:12:03.042Z,102624.18000000001
2022-08-07T10:14:30.460Z,102625.61
2022-08-07T10:17:02.841Z,102624.68
2022-08-07T10:19:25.867Z,102617.91
2022-08-07T10:22:14.503Z,102610.81999999999
2022-08-07T10:24:33.471Z,102611.98999999999
2022-08-07T10:26:56.742Z,102609.90999999999
2022-08-07T10:29:34.932Z,102607.48000000001
2022-08-07T10:32:02.358Z,102603.72
2022-08-07T10:34:31.935Z,102606.01
2022-08-07T10:36:58.170Z,102602.56
2022-08-07T10:39:41.447Z,102605.79000000001
2022-08-07T10:41:53.199Z,102609.02
2022-08-07T10:44:33.836Z,102600.23000000001
2022-08-07T10:46:51.894Z,102596.01
2022-08-07T10:49:24.748Z,102596.18000000001
2022-08-07T10:52:01.672Z,102597.06000000001
2022-08-07T10:54:20.487Z,102593.68
2022-08-07T10:56:57.302Z,102596.0
2022-08-07T10:59:21.638Z,102582.43
2022-08-07T11:02:05.377Z,102576.79000000001
2022-08-07T11:04:32.115Z,102574.48999999999
2022-08-07T11:06:53.567Z,102570.37
2022-08-07T11:10:08.443Z,102568.14
2022-08-07T11:11:51.960Z,102569.19
2022-08-07T11:16:52.733Z,102564.83
2022-08-07T11:19:21.659Z,102565.42
2022-08-07T11:21:53.385Z,102557.39000000001
2022-08-07T11:24:20.876Z,102554.53
2022-08-07T11:26:50.541Z,102557.48000000001
2022-08-07T11:29:40.791Z,102555.76000000001
2022-08-07T11:31:57.927Z,102558.33
2022-08-07T11:34:20.989Z,102551.4
2022-08-07T11:36:56.928Z,102550.32
2022-08-07T11:40:00.588Z,102553.29999999999
2022-08-07T11:42:00.407Z,102550.37999999999
2022-08-07T11:44:26.293Z,102550.99
2022-08-07T11:46:57.124Z,102546.53000000001
2022-08-07T11:50:25.759Z,102544.56999999999
2022-08-07T11:51:56.626Z,102543.93
2022-08-07T11:54:30.910Z,102544.47
2022-08-07T11:56:57.783Z,102543.04
2022-08-07T12:00:12.560Z,102539.28000000001
2022-08-07T12:01:59.258Z,102543.99
2022-08-07T12:04:33.277Z,102541.24999999999
2022-08-07T12:06:56.324Z,102538.77
2022-08-07T12:09:23.204Z,102537.13
2022-08-07T12:12:09.306Z,102531.03000000001
2022-08-07T12:14:19.679Z,102531.45999999999
2022-08-07T12:16:46.747Z,102533.45
2022-08-07T12:19:25.217Z,102529.81999999999
2022-08-07T12:22:36.074Z,102530.97
2022-08-07T12:24:37.599Z,102530.10999999999
2022-08-07T12:26:52.547Z,102535.41
2022-08-07T12:29:23.341Z,102531.85
2022-08-07T12:32:01.755Z,102524.71
2022-08-07T12:34:17.590Z,102523.36
2022-08-07T12:36:49.521Z,102521.02
2022-08-07T12:39:43.949Z,102522.85999999999
2022-08-07T12:41:49.360Z,102530.65
2022-08-07T12:44:17.262Z,102528.16
2022-08-07T12:46:59.305Z,102527.50000000001
2022-08-07T12:49:39.663Z,102524.71
2022-08-07T12:52:12.351Z,102518.91
2022-08-07T12:54:24.296Z,102519.89000000001
2022-08-07T12:56:50.886Z,102519.95999999999
2022-08-07T12:59:20.303Z,102517.60999999999
2022-08-07T13:02:01.873Z,102520.65
2022-08-07T13:04:34.050Z,102517.74
2022-08-07T13:07:02.488Z,102517.48999999999
2022-08-07T13:10:19.440Z,102516.47
2022-08-07T13:12:03.227Z,102507.97
2022-08-07T13:14:25.079Z,102506.90999999999
2022-08-07T13:16:53.129Z,102514.64000000001
2022-08-07T13:19:46.152Z,102515.09000000001
2022-08-07T13:22:02.974Z,102511.34
2022-08-07T13:24:25.796Z,102511.78
2022-08-07T13:26:53.525Z,102503.0
2022-08-07T13:29:20.656Z,102500.45
2022-08-07T13:31:57.604Z,102501.72
2022-08-07T13:34:33.811Z,102498.45
2022-08-07T13:36:51.520Z,102501.84
2022-08-07T13:39:49.225Z,102495.89000000001
2022-08-07T13:41:49.180Z,102494.96999999999
2022-08-07T13:44:26.131Z,102492.51999999999
2022-08-07T13:46:49.398Z,102490.76
2022-08-07T13:52:22.619Z,102493.35
2022-08-07T13:56:55.584Z,102491.28
2022-08-07T13:59:20.568Z,102494.69999999998
2022-08-07T14:02:03.945Z,102487.26
2022-08-07T14:04:15.736Z,102486.39
2022-08-07T14:06:48.543Z,102490.48
2022-08-07T14:10:02.460Z,102485.98999999999
2022-08-07T14:11:53.206Z,102485.62999999999
2022-08-07T14:14:15.828Z,102485.94
2022-08-07T14:16:49.982Z,102488.22
2022-08-07T14:20:39.939Z,102487.26
2022-08-07T14:22:03.340Z,102489.86
2022-08-07T14:24:24.210Z,102482.15
2022-08-07T14:26:51.105Z,102482.85
2022-08-07T14:30:07.365Z,102478.98
2022-08-07T14:31:56.006Z,102477.36
2022-08-07T14:34:19.975Z,102472.90000000001
2022-08-07T14:36:45.353Z,102473.19
2022-08-07T14:40:17.390Z,102476.55
2022-08-07T14:42:22.424Z,102472.47
2022-08-07T14:46:56.532Z,102477.59000000001
2022-08-07T14:54:32.972Z,102475.4
2022-08-07T14:56:47.847Z,102475.35
2022-08-07T15:00:03.759Z,102473.85999999999
2022-08-07T15:01:51.415Z,102469.31999999999
2022-08-07T15:04:15.931Z,102465.98
2022-08-07T15:12:01.125Z,102459.5
2022-08-07T15:14:19.794Z,102456.01999999999
2022-08-07T15:16:54.914Z,102456.18999999999
2022-08-07T15:19:17.468Z,102460.66
2022-08-07T15:22:04.410Z,102460.95
2022-08-07T15:25:16.170Z,102460.81999999999
2022-08-07T15:26:56.107Z,102462.65000000001
2022-08-07T15:32:00.783Z,102457.62999999999
2022-08-07T15:34:17.216Z,102454.96
2022-08-07T15:37:03.357Z,102452.38999999998
2022-08-07T15:39:15.723Z,102447.23
2022-08-07T15:42:45.805Z,102451.21999999999
2022-08-07T15:44:19.861Z,102449.56999999999
2022-08-07T15:46:53.128Z,102449.57999999999
2022-08-07T15:49:16.726Z,102449.37999999999
2022-08-07T15:54:15.009Z,102445.03
2022-08-07T15:56:45.998Z,102446.22
2022-08-07T15:59:19.271Z,102441.15999999999
2022-08-07T16:02:01.632Z,102447.03
2022-08-07T16:04:16.369Z,102441.67
2022-08-07T16:06:51.683Z,102442.32999999999
2022-08-07T16:09:22.852Z,102436.71999999999
2022-08-07T16:11:57.830Z,102437.40000000001
2022-08-07T16:16:57.014Z,102433.7
2022-08-07T16:19:42.496Z,102437.23
2022-08-07T16:22:05.058Z,102437.40000000001
2022-08-07T16:24:33.622Z,102437.34999999999
2022-08-07T16:26:59.496Z,102438.92000000001
2022-08-07T16:30:11.366Z,102442.92
2022-08-07T16:31:58.268Z,102441.65000000001
2022-08-07T16:34:24.039Z,102441.2
2022-08-07T16:37:02.292Z,102439.66
2022-08-07T16:39:40.291Z,102436.57
2022-08-07T16:42:05.737Z,102438.13
2022-08-07T16:44:40.407Z,102436.07999999999
2022-08-07T16:47:07.896Z,102433.99999999999
2022-08-07T16:50:20.675Z,102432.18
2022-08-07T16:52:11.262Z,102431.84000000001
2022-08-07T16:54:34.464Z,102435.07999999999
2022-08-07T16:57:00.564Z,102429.45999999999
2022-08-07T16:59:23.486Z,102431.62999999999
2022-08-07T17:01:58.391Z,102425.09999999999
2022-08-07T17:04:26.542Z,102425.72
2022-08-07T17:07:02.965Z,102424.37999999999
2022-08-07T17:10:06.284Z,102426.44
2022-08-07T17:12:03.998Z,102425.34000000001
2022-08-07T17:14:22.336Z,102426.45
2022-08-07T17:16:55.770Z,102426.53
2022-08-07T17:20:00.621Z,102420.5
2022-08-07T17:21:51.560Z,102422.39
2022-08-07T17:24:34.529Z,102426.34000000001
2022-08-07T17:26:54.013Z,102424.84
2022-08-07T17:30:15.381Z,102426.86000000002
2022-08-07T17:32:03.438Z,102424.67
2022-08-07T17:34:34.855Z,102422.64
2022-08-07T17:37:08.843Z,102422.57999999999
2022-08-07T17:39:20.578Z,102418.02
2022-08-07T17:42:05.007Z,102414.39
2022-08-07T17:44:33.591Z,102418.84999999999
2022-08-07T17:46:53.309Z,102420.35
2022-08-07T17:49:23.214Z,102419.08
2022-08-07T17:52:00.623Z,102417.0
2022-08-07T17:54:29.657Z,102412.83
2022-08-07T17:56:52.675Z,102414.22
2022-08-07T17:59:21.846Z,102413.44999999998
2022-08-07T18:01:56.529Z,102412.65000000001
2022-08-07T18:04:30.922Z,102410.34
2022-08-07T18:07:19.176Z,102412.55000000002
2022-08-07T18:10:05.605Z,102413.23999999999
2022-08-07T18:12:08.022Z,102411.3
2022-08-07T18:14:23.886Z,102413.04000000001
2022-08-07T18:16:58.172Z,102418.87
2022-08-07T18:21:08.886Z,102419.56
2022-08-07T18:22:03.540Z,102418.12
2022-08-07T18:24:34.014Z,102422.21999999999
2022-08-07T18:27:03.656Z,102427.91
2022-08-07T18:30:05.750Z,102426.77
2022-08-07T18:31:58.464Z,102426.83
2022-08-07T18:34:39.203Z,102426.95000000001
2022-08-07T18:36:54.667Z,102431.26
2022-08-07T18:40:06.343Z,102432.31000000001
2022-08-07T18:41:53.863Z,102431.21
2022-08-07T18:44:28.554Z,102437.1
2022-08-07T18:46:50.149Z,102439.87999999999
2022-08-07T18:50:30.968Z,102440.06
2022-08-07T18:52:35.228Z,102438.67
2022-08-07T18:54:31.263Z,102447.11
2022-08-07T18:57:23.548Z,102448.16
2022-08-07T18:59:47.668Z,102450.54000000001
2022-08-07T19:02:32.811Z,102448.95
2022-08-07T19:04:37.929Z,102451.62
2022-08-07T19:06:51.619Z,102454.74999999999
2022-08-07T19:09:56.027Z,102459.06
2022-08-07T19:12:04.622Z,102466.03
2022-08-07T19:14:21.925Z,102464.18000000001
2022-08-07T19:17:06.351Z,102464.28000000001
2022-08-07T19:19:27.940Z,102468.15
2022-08-07T19:21:56.012Z,102469.76
2022-08-07T19:24:30.915Z,102471.15
2022-08-07T19:27:01.927Z,102476.23000000001
2022-08-07T19:31:04.381Z,102476.81999999999
2022-08-07T19:32:10.283Z,102480.73
2022-08-07T19:34:32.677Z,102482.62999999999
2022-08-07T19:36:52.035Z,102486.93000000001
2022-08-07T19:39:19.955Z,102488.06
2022-08-07T19:42:07.857Z,102492.19
2022-08-07T19:44:22.132Z,102497.79000000001
2022-08-07T19:46:50.328Z,102502.29
2022-08-07T19:49:17.755Z,102504.56999999999
2022-08-07T19:51:52.091Z,102500.63
2022-08-07T19:54:35.069Z,102501.56999999999
2022-08-07T19:58:00.291Z,102500.51000000001
2022-08-07T19:59:22.273Z,102500.88
2022-08-07T20:01:57.110Z,102505.15000000001
2022-08-07T20:04:31.857Z,102503.76000000001
2022-08-07T20:06:46.233Z,102505.86
2022-08-07T20:10:36.510Z,102508.8
2022-08-07T20:12:21.977Z,102504.73999999999
2022-08-07T20:14:21.105Z,102505.0
2022-08-07T20:16:47.174Z,102506.91999999998
2022-08-07T20:19:19.547Z,102510.24
2022-08-07T20:21:47.238Z,102504.41
2022-08-07T20:24:19.677Z,102501.89
2022-08-07T20:26:50.091Z,102499.39
2022-08-07T20:29:16.984Z,102496.98000000001
2022-08-07T20:31:46.513Z,102497.68999999999
2022-08-07T20:34:25.632Z,102499.21999999999
2022-08-07T20:36:51.691Z,102506.88
2022-08-07T20:40:03.034Z,102503.56
2022-08-07T20:41:47.300Z,102502.66999999998
2022-08-07T20:44:15.340Z,102502.72
2022-08-07T20:46:45.763Z,102504.85
2022-08-07T20:49:58.081Z,102503.67000000001
2022-08-07T20:51:50.541Z,102506.97
2022-08-07T20:54:29.624Z,102506.48000000001
2022-08-07T20:56:48.889Z,102500.05000000002
2022-08-07T21:00:04.242Z,102504.02999999998
2022-08-07T21:01:55.099Z,102506.8
2022-08-07T21:04:22.732Z,102507.89
2022-08-07T21:06:53.753Z,102507.23000000001
2022-08-07T21:09:18.614Z,102506.25
2022-08-07T21:11:50.126Z,102505.40000000001
2022-08-07T21:14:33.134Z,102510.13
2022-08-07T21:17:06.532Z,102507.91999999998
2022-08-07T21:19:16.185Z,102508.97
2022-08-07T21:21:56.967Z,102507.9
2022-08-07T21:24:23.315Z,102507.93000000001
2022-08-07T21:26:54.315Z,102506.40000000001
2022-08-07T21:29:20.446Z,102506.40000000001
2022-08-07T21:32:46.585Z,102508.37
2022-08-07T21:34:22.023Z,102506.15000000001
2022-08-07T21:36:51.141Z,102502.37
2022-08-07T21:39:46.415Z,102504.72
2022-08-07T21:41:52.166Z,102501.81
2022-08-07T21:44:28.229Z,102499.61
2022-08-07T21:46:49.149Z,102498.44
2022-08-07T21:49:21.066Z,102495.56999999999
2022-08-07T21:51:55.899Z,102498.04999999999
2022-08-07T21:54:26.646Z,102499.56
2022-08-07T21:56:59.862Z,102498.35
2022-08-07T21:59:30.485Z,102494.15
2022-08-07T22:02:10.340Z,102501.77
2022-08-07T22:04:17.570Z,102504.09
2022-08-07T22:06:52.097Z,102510.14
2022-08-07T22:09:24.257Z,102513.49
2022-08-07T22:12:04.941Z,102514.72000000002
2022-08-07T22:14:15.309Z,102518.84999999999
2022-08-07T22:16:50.157Z,102522.64
2022-08-07T22:19:23.583Z,102522.11
2022-08-07T22:22:04.622Z,102525.04
2022-08-07T22:24:18.605Z,102529.37
2022-08-07T22:26:49.917Z,102527.45
2022-08-07T22:29:22.898Z,102526.61
2022-08-07T22:32:00.319Z,102525.6
2022-08-07T22:34:19.929Z,102527.0
2022-08-07T22:36:52.908Z,102529.76000000001
2022-08-07T22:39:25.217Z,102524.72
2022-08-07T22:42:03.878Z,102519.36
2022-08-07T22:44:20.665Z,102516.26000000001
2022-08-07T22:47:06.075Z,102515.06
2022-08-07T22:49:34.037Z,102515.00000000001
2022-08-07T22:52:00.599Z,102511.45
2022-08-07T22:56:59.391Z,102520.56
2022-08-07T22:59:34.187Z,102523.45
2022-08-07T23:02:00.750Z,102518.37000000001
2022-08-07T23:04:30.788Z,102520.94
2022-08-07T23:06:58.545Z,102518.23999999999
2022-08-07T23:10:04.719Z,102519.74
2022-08-07T23:11:59.413Z,102520.12999999999
2022-08-07T23:14:33.031Z,102525.27
2022-08-07T23:17:02.025Z,102526.01
2022-08-07T23:19:48.177Z,102525.35
2022-08-07T23:21:53.561Z,102522.8
2022-08-07T23:24:31.791Z,102523.11
2022-08-07T23:27:01.247Z,102519.59999999999
2022-08-07T23:30:35.509Z,102517.68
2022-08-07T23:34:21.866Z,102517.53000000001
2022-08-07T23:34:36.093Z,102521.88
2022-08-07T23:37:20.176Z,102520.61000000002
2022-08-07T23:39:21.970Z,102521.11
2022-08-07T23:42:04.323Z,102519.08
2022-08-07T23:44:32.463Z,102525.15000000001
2022-08-07T23:47:04.230Z,102526.61
2022-08-07T23:49:49.745Z,102523.45
2022-08-07T23:53:00.906Z,102519.01000000001
2022-08-07T23:54:35.812Z,102518.09000000001
2022-08-07T23:56:54.436Z,102518.35
